sensor_id;sensor_type;location;lat;lon;timestamp;pressure;altitude;pressure_sealevel;temperature;humidity
25232;BME280;13176;51.140;6.290;2024-01-07T00:00:05;100572.47;;;4.21;89.67
25232;BME280;13176;51.140;6.290;2024-01-07T00:02:32;100690.22;;;4.94;89.92
25232;BME280;13176;51.140;6.290;2024-01-07T00:04:59;100654.75;;;4.71;90.07
25232;BME280;13176;51.140;6.290;2024-01-07T00:07:25;100577.69;;;4.25;90.18
25232;BME280;13176;51.140;6.290;2024-01-07T00:09:52;100925.75;;;6.04;91.09
25232;BME280;13176;51.140;6.290;2024-01-07T00:12:19;100841.72;;;5.66;90.76
25232;BME280;13176;51.140;6.290;2024-01-07T00:14:45;100802.59;;;5.31;90.49
25232;BME280;13176;51.140;6.290;2024-01-07T00:17:12;100638.00;;;4.32;91.29
25232;BME280;13176;51.140;6.290;2024-01-07T00:19:39;100863.28;;;5.65;90.92
25232;BME280;13176;51.140;6.290;2024-01-07T00:22:07;100773.94;;;5.07;90.81
25232;BME280;13176;51.140;6.290;2024-01-07T00:24:40;100704.88;;;4.94;90.38
25232;BME280;13176;51.140;6.290;2024-01-07T00:27:07;100701.44;;;4.92;90.55
25232;BME280;13176;51.140;6.290;2024-01-07T00:29:36;100722.09;;;4.92;90.63
25232;BME280;13176;51.140;6.290;2024-01-07T00:32:02;100829.56;;;5.59;91.35
25232;BME280;13176;51.140;6.290;2024-01-07T00:34:31;100728.13;;;4.92;91.38
25232;BME280;13176;51.140;6.290;2024-01-07T00:36:58;100564.63;;;4.10;90.63
25232;BME280;13176;51.140;6.290;2024-01-07T00:39:25;100942.28;;;6.24;91.21
25232;BME280;13176;51.140;6.290;2024-01-07T00:41:51;100637.41;;;4.58;91.00
25232;BME280;13176;51.140;6.290;2024-01-07T00:44:18;100852.22;;;5.84;91.04
25232;BME280;13176;51.140;6.290;2024-01-07T00:46:48;100725.41;;;4.79;90.86
25232;BME280;13176;51.140;6.290;2024-01-07T00:49:15;100862.56;;;5.84;90.69
25232;BME280;13176;51.140;6.290;2024-01-07T00:51:46;100672.91;;;4.81;90.49
25232;BME280;13176;51.140;6.290;2024-01-07T00:54:20;100944.06;;;6.28;90.81
25232;BME280;13176;51.140;6.290;2024-01-07T00:56:47;100704.88;;;4.91;90.29
25232;BME280;13176;51.140;6.290;2024-01-07T00:59:15;100729.13;;;5.05;90.24
25232;BME280;13176;51.140;6.290;2024-01-07T01:01:41;100611.38;;;4.40;90.46
25232;BME280;13176;51.140;6.290;2024-01-07T01:04:08;100931.91;;;6.15;90.53
25232;BME280;13176;51.140;6.290;2024-01-07T01:06:35;100806.16;;;5.43;90.49
25232;BME280;13176;51.140;6.290;2024-01-07T01:09:04;100763.63;;;5.13;91.01
25232;BME280;13176;51.140;6.290;2024-01-07T01:11:34;100837.13;;;5.36;91.51
25232;BME280;13176;51.140;6.290;2024-01-07T01:14:00;100874.47;;;5.64;91.23
25232;BME280;13176;51.140;6.290;2024-01-07T01:16:27;100738.50;;;4.94;91.64
25232;BME280;13176;51.140;6.290;2024-01-07T01:18:53;100758.28;;;4.92;91.52
25232;BME280;13176;51.140;6.290;2024-01-07T01:21:20;100852.91;;;5.67;91.54
25232;BME280;13176;51.140;6.290;2024-01-07T01:23:46;100910.97;;;5.90;91.87
25232;BME280;13176;51.140;6.290;2024-01-07T01:26:13;100798.81;;;4.96;92.17
25232;BME280;13176;51.140;6.290;2024-01-07T01:28:40;100787.72;;;5.06;92.36
25232;BME280;13176;51.140;6.290;2024-01-07T01:31:06;100775.34;;;4.78;93.22
25232;BME280;13176;51.140;6.290;2024-01-07T01:33:33;100752.75;;;4.56;92.49
25232;BME280;13176;51.140;6.290;2024-01-07T01:36:04;100858.78;;;5.47;92.37
25232;BME280;13176;51.140;6.290;2024-01-07T01:38:32;100771.97;;;4.82;92.66
25232;BME280;13176;51.140;6.290;2024-01-07T01:40:58;100871.81;;;5.58;92.51
25232;BME280;13176;51.140;6.290;2024-01-07T01:43:26;100881.19;;;5.48;93.00
25232;BME280;13176;51.140;6.290;2024-01-07T01:45:53;100844.00;;;5.34;93.01
25232;BME280;13176;51.140;6.290;2024-01-07T01:48:20;100850.91;;;5.36;92.42
25232;BME280;13176;51.140;6.290;2024-01-07T01:50:48;100913.25;;;5.61;93.81
25232;BME280;13176;51.140;6.290;2024-01-07T01:53:15;100916.78;;;5.71;93.79
25232;BME280;13176;51.140;6.290;2024-01-07T01:55:45;100891.63;;;5.54;93.59
25232;BME280;13176;51.140;6.290;2024-01-07T01:58:13;100785.00;;;4.95;93.10
25232;BME280;13176;51.140;6.290;2024-01-07T02:00:40;100764.78;;;4.54;94.22
25232;BME280;13176;51.140;6.290;2024-01-07T02:03:07;100818.59;;;4.91;93.58
25232;BME280;13176;51.140;6.290;2024-01-07T02:05:33;100829.13;;;5.12;93.58
25232;BME280;13176;51.140;6.290;2024-01-07T02:08:00;100832.53;;;5.05;93.52
25232;BME280;13176;51.140;6.290;2024-01-07T02:10:27;100828.19;;;5.01;94.01
25232;BME280;13176;51.140;6.290;2024-01-07T02:12:57;100837.56;;;4.94;94.66
25232;BME280;13176;51.140;6.290;2024-01-07T02:15:26;100829.00;;;4.97;94.59
25232;BME280;13176;51.140;6.290;2024-01-07T02:17:52;100877.56;;;5.26;94.22
25232;BME280;13176;51.140;6.290;2024-01-07T02:20:19;100781.81;;;4.39;94.80
25232;BME280;13176;51.140;6.290;2024-01-07T02:22:46;100924.41;;;5.55;94.55
25232;BME280;13176;51.140;6.290;2024-01-07T02:25:12;100842.91;;;5.11;93.79
25232;BME280;13176;51.140;6.290;2024-01-07T02:27:39;100752.78;;;4.60;93.57
25232;BME280;13176;51.140;6.290;2024-01-07T02:30:06;100890.72;;;5.52;92.66
25232;BME280;13176;51.140;6.290;2024-01-07T02:32:33;100974.75;;;5.80;93.35
25232;BME280;13176;51.140;6.290;2024-01-07T02:35:01;100855.75;;;5.02;93.67
25232;BME280;13176;51.140;6.290;2024-01-07T02:37:28;100964.28;;;5.74;93.75
25232;BME280;13176;51.140;6.290;2024-01-07T02:39:54;100739.72;;;4.46;93.85
25232;BME280;13176;51.140;6.290;2024-01-07T02:42:27;100802.84;;;4.70;94.23
25232;BME280;13176;51.140;6.290;2024-01-07T02:44:54;100851.53;;;5.13;93.62
25232;BME280;13176;51.140;6.290;2024-01-07T02:47:20;100809.81;;;4.77;94.03
25232;BME280;13176;51.140;6.290;2024-01-07T02:49:47;100855.88;;;5.14;93.48
25232;BME280;13176;51.140;6.290;2024-01-07T02:52:13;100837.28;;;4.69;93.67
25232;BME280;13176;51.140;6.290;2024-01-07T02:54:40;100823.56;;;4.73;94.23
25232;BME280;13176;51.140;6.290;2024-01-07T02:57:07;100806.31;;;4.75;93.78
25232;BME280;13176;51.140;6.290;2024-01-07T02:59:34;100782.00;;;4.55;93.68
25232;BME280;13176;51.140;6.290;2024-01-07T03:02:01;100852.97;;;4.84;93.69
25232;BME280;13176;51.140;6.290;2024-01-07T03:04:28;100872.13;;;5.01;93.89
25232;BME280;13176;51.140;6.290;2024-01-07T03:06:54;100969.19;;;5.51;93.54
25232;BME280;13176;51.140;6.290;2024-01-07T03:09:21;100973.78;;;5.75;92.87
25232;BME280;13176;51.140;6.290;2024-01-07T03:11:47;100849.75;;;5.03;92.49
25232;BME280;13176;51.140;6.290;2024-01-07T03:14:14;101025.72;;;5.90;92.72
25232;BME280;13176;51.140;6.290;2024-01-07T03:16:43;100805.34;;;4.62;92.92
25232;BME280;13176;51.140;6.290;2024-01-07T03:19:09;100902.53;;;5.24;92.23
25232;BME280;13176;51.140;6.290;2024-01-07T03:21:36;100924.34;;;5.46;92.47
25232;BME280;13176;51.140;6.290;2024-01-07T03:24:03;100909.47;;;5.28;92.21
25232;BME280;13176;51.140;6.290;2024-01-07T03:26:30;101033.47;;;5.87;92.66
25232;BME280;13176;51.140;6.290;2024-01-07T03:28:59;100905.91;;;5.17;93.16
25232;BME280;13176;51.140;6.290;2024-01-07T03:31:26;100958.88;;;5.54;92.36
25232;BME280;13176;51.140;6.290;2024-01-07T03:33:53;100853.94;;;4.96;92.21
25232;BME280;13176;51.140;6.290;2024-01-07T03:36:22;100963.97;;;5.45;92.58
25232;BME280;13176;51.140;6.290;2024-01-07T03:38:49;100885.66;;;4.82;92.68
25232;BME280;13176;51.140;6.290;2024-01-07T03:41:17;100923.31;;;5.32;92.13
25232;BME280;13176;51.140;6.290;2024-01-07T03:43:49;100861.66;;;4.92;91.91
25232;BME280;13176;51.140;6.290;2024-01-07T03:46:16;100996.38;;;5.16;94.12
25232;BME280;13176;51.140;6.290;2024-01-07T03:48:43;100982.69;;;5.23;92.94
25232;BME280;13176;51.140;6.290;2024-01-07T03:51:10;100853.31;;;4.44;92.04
25232;BME280;13176;51.140;6.290;2024-01-07T03:53:37;100915.22;;;5.03;92.64
25232;BME280;13176;51.140;6.290;2024-01-07T03:56:04;100842.25;;;4.54;92.08
25232;BME280;13176;51.140;6.290;2024-01-07T03:58:30;100904.50;;;4.72;92.40
25232;BME280;13176;51.140;6.290;2024-01-07T04:00:57;100954.03;;;5.05;92.26
25232;BME280;13176;51.140;6.290;2024-01-07T04:03:23;101025.78;;;5.24;92.44
25232;BME280;13176;51.140;6.290;2024-01-07T04:05:50;100915.69;;;4.72;92.54
25232;BME280;13176;51.140;6.290;2024-01-07T04:08:17;100933.38;;;5.09;92.21
25232;BME280;13176;51.140;6.290;2024-01-07T04:10:43;100802.38;;;4.31;91.77
25232;BME280;13176;51.140;6.290;2024-01-07T04:13:10;100731.34;;;3.93;91.50
25232;BME280;13176;51.140;6.290;2024-01-07T04:15:36;100929.69;;;4.88;92.91
25232;BME280;13176;51.140;6.290;2024-01-07T04:18:03;100860.03;;;4.32;93.95
25232;BME280;13176;51.140;6.290;2024-01-07T04:20:31;100740.97;;;3.45;93.94
25232;BME280;13176;51.140;6.290;2024-01-07T04:22:58;101083.00;;;5.45;94.30
25232;BME280;13176;51.140;6.290;2024-01-07T04:25:24;100955.56;;;4.92;93.33
25232;BME280;13176;51.140;6.290;2024-01-07T04:27:51;100925.19;;;4.75;93.13
25232;BME280;13176;51.140;6.290;2024-01-07T04:30:17;100985.78;;;4.95;94.39
25232;BME280;13176;51.140;6.290;2024-01-07T04:32:44;100980.47;;;4.86;93.90
25232;BME280;13176;51.140;6.290;2024-01-07T04:35:11;101063.78;;;5.28;94.17
25232;BME280;13176;51.140;6.290;2024-01-07T04:37:37;101090.13;;;5.63;94.10
25232;BME280;13176;51.140;6.290;2024-01-07T04:40:05;101029.44;;;5.38;93.25
25232;BME280;13176;51.140;6.290;2024-01-07T04:42:32;100958.19;;;4.94;92.68
25232;BME280;13176;51.140;6.290;2024-01-07T04:44:59;100973.63;;;4.88;93.43
25232;BME280;13176;51.140;6.290;2024-01-07T04:47:30;100897.22;;;4.44;93.15
25232;BME280;13176;51.140;6.290;2024-01-07T04:49:57;100975.13;;;4.71;93.72
25232;BME280;13176;51.140;6.290;2024-01-07T04:52:24;101118.50;;;5.56;93.29
25232;BME280;13176;51.140;6.290;2024-01-07T04:54:52;101050.72;;;5.17;92.97
25232;BME280;13176;51.140;6.290;2024-01-07T04:57:19;101093.50;;;5.58;92.80
25232;BME280;13176;51.140;6.290;2024-01-07T04:59:47;101095.03;;;5.43;92.80
25232;BME280;13176;51.140;6.290;2024-01-07T05:02:14;101056.91;;;5.30;92.70
25232;BME280;13176;51.140;6.290;2024-01-07T05:04:41;100968.41;;;4.85;91.96
25232;BME280;13176;51.140;6.290;2024-01-07T05:07:08;100873.84;;;4.32;91.96
25232;BME280;13176;51.140;6.290;2024-01-07T05:09:34;101020.44;;;5.12;91.81
25232;BME280;13176;51.140;6.290;2024-01-07T05:12:01;100840.94;;;4.19;91.32
25232;BME280;13176;51.140;6.290;2024-01-07T05:14:28;101008.78;;;4.77;92.02
25232;BME280;13176;51.140;6.290;2024-01-07T05:16:54;101012.78;;;4.57;92.55
25232;BME280;13176;51.140;6.290;2024-01-07T05:19:21;100889.16;;;4.20;91.28
25232;BME280;13176;51.140;6.290;2024-01-07T05:21:48;100895.72;;;4.00;91.08
25232;BME280;13176;51.140;6.290;2024-01-07T05:24:14;100997.59;;;4.78;90.76
25232;BME280;13176;51.140;6.290;2024-01-07T05:26:42;100980.94;;;4.59;90.44
25232;BME280;13176;51.140;6.290;2024-01-07T05:29:09;101070.50;;;5.17;90.68
25232;BME280;13176;51.140;6.290;2024-01-07T05:31:35;100894.94;;;4.06;90.54
25232;BME280;13176;51.140;6.290;2024-01-07T05:34:02;101082.31;;;4.97;91.24
25232;BME280;13176;51.140;6.290;2024-01-07T05:36:29;101065.88;;;4.93;91.15
25232;BME280;13176;51.140;6.290;2024-01-07T05:38:55;101007.78;;;4.66;90.91
25232;BME280;13176;51.140;6.290;2024-01-07T05:41:22;101073.66;;;4.95;91.07
25232;BME280;13176;51.140;6.290;2024-01-07T05:43:49;100992.13;;;4.57;90.62
25232;BME280;13176;51.140;6.290;2024-01-07T05:46:16;101075.59;;;5.08;90.33
25232;BME280;13176;51.140;6.290;2024-01-07T05:48:47;101073.56;;;4.89;91.13
25232;BME280;13176;51.140;6.290;2024-01-07T05:51:14;101129.38;;;5.33;90.67
25232;BME280;13176;51.140;6.290;2024-01-07T05:53:43;101162.22;;;5.37;91.36
25232;BME280;13176;51.140;6.290;2024-01-07T05:56:09;101151.84;;;5.37;90.82
25232;BME280;13176;51.140;6.290;2024-01-07T05:58:36;100971.16;;;4.36;90.12
25232;BME280;13176;51.140;6.290;2024-01-07T06:01:02;101165.44;;;5.24;91.05
25232;BME280;13176;51.140;6.290;2024-01-07T06:03:29;101085.28;;;4.66;90.99
25232;BME280;13176;51.140;6.290;2024-01-07T06:05:57;101022.31;;;4.09;91.07
25232;BME280;13176;51.140;6.290;2024-01-07T06:08:28;101153.47;;;5.29;89.92
25232;BME280;13176;51.140;6.290;2024-01-07T06:10:54;100979.38;;;4.13;89.25
25232;BME280;13176;51.140;6.290;2024-01-07T06:13:21;101039.66;;;4.16;90.85
25232;BME280;13176;51.140;6.290;2024-01-07T06:15:47;101109.31;;;4.62;89.94
25232;BME280;13176;51.140;6.290;2024-01-07T06:18:14;101071.47;;;4.64;89.24
25232;BME280;13176;51.140;6.290;2024-01-07T06:20:41;101100.78;;;4.66;89.67
25232;BME280;13176;51.140;6.290;2024-01-07T06:23:07;100956.91;;;4.07;88.47
25232;BME280;13176;51.140;6.290;2024-01-07T06:25:34;101008.84;;;4.25;88.75
25232;BME280;13176;51.140;6.290;2024-01-07T06:28:03;101076.81;;;4.76;88.90
25232;BME280;13176;51.140;6.290;2024-01-07T06:30:30;101102.91;;;4.91;88.72
25232;BME280;13176;51.140;6.290;2024-01-07T06:32:57;101018.38;;;4.31;88.68
25232;BME280;13176;51.140;6.290;2024-01-07T06:35:24;101122.06;;;5.05;88.25
25232;BME280;13176;51.140;6.290;2024-01-07T06:37:51;100988.06;;;4.18;88.15
25232;BME280;13176;51.140;6.290;2024-01-07T06:40:18;101090.56;;;4.72;88.46
25232;BME280;13176;51.140;6.290;2024-01-07T06:42:45;101191.19;;;5.16;88.15
25232;BME280;13176;51.140;6.290;2024-01-07T06:45:11;101204.97;;;5.17;88.76
25232;BME280;13176;51.140;6.290;2024-01-07T06:47:38;101164.97;;;4.94;88.11
25232;BME280;13176;51.140;6.290;2024-01-07T06:50:05;100992.94;;;4.01;88.37
25232;BME280;13176;51.140;6.290;2024-01-07T06:52:32;100911.41;;;3.60;87.93
25232;BME280;13176;51.140;6.290;2024-01-07T06:54:58;101025.91;;;4.17;87.40
25232;BME280;13176;51.140;6.290;2024-01-07T06:57:25;101174.59;;;5.02;88.67
25232;BME280;13176;51.140;6.290;2024-01-07T06:59:52;101236.53;;;5.50;88.38
25232;BME280;13176;51.140;6.290;2024-01-07T07:02:20;101227.22;;;5.60;88.01
25232;BME280;13176;51.140;6.290;2024-01-07T07:04:47;101218.72;;;5.13;87.90
25232;BME280;13176;51.140;6.290;2024-01-07T07:07:15;100991.13;;;3.94;86.98
25232;BME280;13176;51.140;6.290;2024-01-07T07:09:41;100973.94;;;3.96;87.48
25232;BME280;13176;51.140;6.290;2024-01-07T07:12:08;101156.31;;;4.92;87.16
25232;BME280;13176;51.140;6.290;2024-01-07T07:14:34;101181.84;;;4.74;88.27
25232;BME280;13176;51.140;6.290;2024-01-07T07:17:01;101194.88;;;4.80;88.10
25232;BME280;13176;51.140;6.290;2024-01-07T07:19:27;101256.91;;;5.29;87.95
25232;BME280;13176;51.140;6.290;2024-01-07T07:21:54;101226.78;;;4.82;88.42
25232;BME280;13176;51.140;6.290;2024-01-07T07:24:21;101168.09;;;4.26;89.11
25232;BME280;13176;51.140;6.290;2024-01-07T07:26:48;101028.25;;;3.56;88.77
25232;BME280;13176;51.140;6.290;2024-01-07T07:29:15;100953.88;;;3.34;88.59
25232;BME280;13176;51.140;6.290;2024-01-07T07:31:41;101161.88;;;4.17;89.42
25232;BME280;13176;51.140;6.290;2024-01-07T07:34:09;101194.34;;;4.48;88.73
25232;BME280;13176;51.140;6.290;2024-01-07T07:36:36;101117.16;;;4.19;87.36
25232;BME280;13176;51.140;6.290;2024-01-07T07:39:03;101273.50;;;4.91;88.17
25232;BME280;13176;51.140;6.290;2024-01-07T07:41:29;101000.22;;;3.32;88.33
25232;BME280;13176;51.140;6.290;2024-01-07T07:43:56;101265.31;;;5.16;87.48
25232;BME280;13176;51.140;6.290;2024-01-07T07:46:22;101271.06;;;5.00;88.31
25232;BME280;13176;51.140;6.290;2024-01-07T07:48:49;101151.75;;;4.27;87.22
25232;BME280;13176;51.140;6.290;2024-01-07T07:51:16;101205.41;;;4.43;88.24
25232;BME280;13176;51.140;6.290;2024-01-07T07:53:43;101177.31;;;4.15;88.77
25232;BME280;13176;51.140;6.290;2024-01-07T07:56:09;100986.63;;;2.97;89.06
25232;BME280;13176;51.140;6.290;2024-01-07T07:58:38;100992.78;;;3.04;89.32
25232;BME280;13176;51.140;6.290;2024-01-07T08:01:08;101251.97;;;4.46;88.49
25232;BME280;13176;51.140;6.290;2024-01-07T08:03:35;101300.63;;;4.68;89.07
25232;BME280;13176;51.140;6.290;2024-01-07T08:06:05;101147.63;;;3.92;87.84
25232;BME280;13176;51.140;6.290;2024-01-07T08:08:36;101208.50;;;4.26;87.75
25232;BME280;13176;51.140;6.290;2024-01-07T08:11:02;101238.50;;;4.62;87.77
25232;BME280;13176;51.140;6.290;2024-01-07T08:13:31;101329.28;;;4.80;88.00
25232;BME280;13176;51.140;6.290;2024-01-07T08:16:01;101265.44;;;4.30;87.87
25232;BME280;13176;51.140;6.290;2024-01-07T08:18:28;101302.69;;;4.43;89.48
25232;BME280;13176;51.140;6.290;2024-01-07T08:20:55;101347.72;;;4.98;87.92
25232;BME280;13176;51.140;6.290;2024-01-07T08:23:21;101361.25;;;4.85;87.67
25232;BME280;13176;51.140;6.290;2024-01-07T08:25:49;101314.66;;;4.39;89.72
25232;BME280;13176;51.140;6.290;2024-01-07T08:28:17;101171.78;;;3.18;89.49
25232;BME280;13176;51.140;6.290;2024-01-07T08:30:44;101266.66;;;4.07;88.48
25232;BME280;13176;51.140;6.290;2024-01-07T08:33:11;101358.47;;;4.76;87.66
25232;BME280;13176;51.140;6.290;2024-01-07T08:35:37;101393.38;;;4.56;88.36
25232;BME280;13176;51.140;6.290;2024-01-07T08:38:04;101396.53;;;4.83;87.55
25232;BME280;13176;51.140;6.290;2024-01-07T08:40:31;101244.66;;;3.84;87.66
25232;BME280;13176;51.140;6.290;2024-01-07T08:42:57;101348.44;;;4.48;87.37
25232;BME280;13176;51.140;6.290;2024-01-07T08:45:24;101374.19;;;4.45;87.11
25232;BME280;13176;51.140;6.290;2024-01-07T08:47:51;101381.19;;;4.49;87.30
25232;BME280;13176;51.140;6.290;2024-01-07T08:50:17;101288.91;;;4.02;87.04
25232;BME280;13176;51.140;6.290;2024-01-07T08:52:44;101371.19;;;4.64;86.52
25232;BME280;13176;51.140;6.290;2024-01-07T08:55:12;101346.56;;;4.41;86.42
25232;BME280;13176;51.140;6.290;2024-01-07T08:57:40;101262.44;;;3.72;86.75
25232;BME280;13176;51.140;6.290;2024-01-07T09:00:07;101237.38;;;3.32;87.55
25232;BME280;13176;51.140;6.290;2024-01-07T09:02:36;101261.50;;;3.69;88.31
25232;BME280;13176;51.140;6.290;2024-01-07T09:05:08;101238.84;;;3.56;87.79
25232;BME280;13176;51.140;6.290;2024-01-07T09:07:34;101334.38;;;4.34;87.00
25232;BME280;13176;51.140;6.290;2024-01-07T09:10:04;101248.84;;;3.79;86.83
25232;BME280;13176;51.140;6.290;2024-01-07T09:12:35;101141.41;;;3.05;86.89
25232;BME280;13176;51.140;6.290;2024-01-07T09:15:02;101390.66;;;4.48;87.55
25232;BME280;13176;51.140;6.290;2024-01-07T09:17:29;101376.47;;;4.70;87.39
25232;BME280;13176;51.140;6.290;2024-01-07T09:19:55;101294.03;;;3.99;85.75
25232;BME280;13176;51.140;6.290;2024-01-07T09:22:22;101315.66;;;4.06;86.90
25232;BME280;13176;51.140;6.290;2024-01-07T09:24:49;101315.63;;;4.44;86.27
25232;BME280;13176;51.140;6.290;2024-01-07T09:27:19;101297.88;;;4.19;84.99
25232;BME280;13176;51.140;6.290;2024-01-07T09:29:45;101325.09;;;4.44;84.39
25232;BME280;13176;51.140;6.290;2024-01-07T09:32:12;101395.06;;;4.95;83.73
25232;BME280;13176;51.140;6.290;2024-01-07T09:34:38;101437.59;;;5.11;84.26
25232;BME280;13176;51.140;6.290;2024-01-07T09:37:05;101413.50;;;4.69;83.54
25232;BME280;13176;51.140;6.290;2024-01-07T09:39:32;101348.63;;;4.57;84.20
25232;BME280;13176;51.140;6.290;2024-01-07T09:41:58;101420.13;;;4.98;84.08
25232;BME280;13176;51.140;6.290;2024-01-07T09:44:28;101409.09;;;5.06;83.74
25232;BME280;13176;51.140;6.290;2024-01-07T09:46:55;101403.16;;;5.12;83.21
25232;BME280;13176;51.140;6.290;2024-01-07T09:49:22;101394.72;;;5.22;83.47
25232;BME280;13176;51.140;6.290;2024-01-07T09:51:53;101347.38;;;4.80;82.42
25232;BME280;13176;51.140;6.290;2024-01-07T09:54:23;101274.81;;;4.27;82.40
25232;BME280;13176;51.140;6.290;2024-01-07T09:56:54;101363.63;;;5.19;81.69
25232;BME280;13176;51.140;6.290;2024-01-07T09:59:22;101336.38;;;4.90;81.37
25232;BME280;13176;51.140;6.290;2024-01-07T10:01:49;101309.00;;;4.56;80.32
25232;BME280;13176;51.140;6.290;2024-01-07T10:04:21;101388.13;;;4.91;81.55
25232;BME280;13176;51.140;6.290;2024-01-07T10:06:48;101297.13;;;4.25;83.01
25232;BME280;13176;51.140;6.290;2024-01-07T10:09:17;101411.47;;;4.96;81.69
25232;BME280;13176;51.140;6.290;2024-01-07T10:11:43;101381.16;;;4.89;82.21
25232;BME280;13176;51.140;6.290;2024-01-07T10:14:10;101424.59;;;5.05;81.76
25232;BME280;13176;51.140;6.290;2024-01-07T10:16:37;101293.84;;;4.30;81.56
25232;BME280;13176;51.140;6.290;2024-01-07T10:19:03;101272.41;;;4.36;80.05
25232;BME280;13176;51.140;6.290;2024-01-07T10:21:30;101384.13;;;5.07;81.13
25232;BME280;13176;51.140;6.290;2024-01-07T10:24:10;101309.16;;;4.64;79.44
25232;BME280;13176;51.140;6.290;2024-01-07T10:26:46;101498.28;;;5.70;79.43
25232;BME280;13176;51.140;6.290;2024-01-07T10:29:22;101225.59;;;4.19;79.82
25232;BME280;13176;51.140;6.290;2024-01-07T10:31:59;101281.00;;;4.33;78.75
25232;BME280;13176;51.140;6.290;2024-01-07T10:34:26;101304.53;;;4.08;79.94
25232;BME280;13176;51.140;6.290;2024-01-07T10:36:54;101451.41;;;5.10;80.71
25232;BME280;13176;51.140;6.290;2024-01-07T10:39:23;101388.78;;;4.83;79.28
25232;BME280;13176;51.140;6.290;2024-01-07T10:41:50;101501.16;;;5.40;78.80
25232;BME280;13176;51.140;6.290;2024-01-07T10:44:16;101488.09;;;5.34;79.77
25232;BME280;13176;51.140;6.290;2024-01-07T10:46:46;101337.59;;;4.64;79.07
25232;BME280;13176;51.140;6.290;2024-01-07T10:49:19;101466.03;;;5.52;77.52
25232;BME280;13176;51.140;6.290;2024-01-07T10:52:03;101525.03;;;5.69;76.93
25232;BME280;13176;51.140;6.290;2024-01-07T10:54:32;101474.06;;;5.23;78.04
25232;BME280;13176;51.140;6.290;2024-01-07T10:57:07;101520.56;;;5.61;79.35
25232;BME280;13176;51.140;6.290;2024-01-07T10:59:36;101503.00;;;5.47;78.51
25232;BME280;13176;51.140;6.290;2024-01-07T11:02:03;101277.91;;;4.52;78.07
25232;BME280;13176;51.140;6.290;2024-01-07T11:07:35;101494.19;;;5.37;77.28
25232;BME280;13176;51.140;6.290;2024-01-07T11:10:16;101474.44;;;5.41;79.23
25232;BME280;13176;51.140;6.290;2024-01-07T11:12:53;101537.47;;;5.88;76.53
25232;BME280;13176;51.140;6.290;2024-01-07T11:18:21;101429.75;;;5.06;76.08
25232;BME280;13176;51.140;6.290;2024-01-07T11:20:49;101493.50;;;5.46;76.72
25232;BME280;13176;51.140;6.290;2024-01-07T11:23:35;101500.78;;;5.64;77.34
25232;BME280;13176;51.140;6.290;2024-01-07T11:26:06;101481.41;;;5.45;76.27
25232;BME280;13176;51.140;6.290;2024-01-07T11:31:18;101450.25;;;4.96;76.78
25232;BME280;13176;51.140;6.290;2024-01-07T11:33:50;101414.28;;;4.66;76.86
25232;BME280;13176;51.140;6.290;2024-01-07T11:36:17;101435.72;;;4.24;77.93
25232;BME280;13176;51.140;6.290;2024-01-07T11:38:46;101349.63;;;3.87;78.20
25232;BME280;13176;51.140;6.290;2024-01-07T11:41:20;101460.50;;;4.53;78.56
25232;BME280;13176;51.140;6.290;2024-01-07T11:43:56;101322.91;;;3.85;78.72
25232;BME280;13176;51.140;6.290;2024-01-07T11:46:32;101514.09;;;5.40;77.07
25232;BME280;13176;51.140;6.290;2024-01-07T11:49:00;101291.94;;;3.83;76.91
25232;BME280;13176;51.140;6.290;2024-01-07T11:51:33;101563.84;;;5.69;78.31
25232;BME280;13176;51.140;6.290;2024-01-07T11:54:02;101496.75;;;5.36;78.05
25232;BME280;13176;51.140;6.290;2024-01-07T11:56:30;101232.97;;;3.61;77.14
25232;BME280;13176;51.140;6.290;2024-01-07T11:59:04;101536.59;;;5.44;76.00
25232;BME280;13176;51.140;6.290;2024-01-07T12:01:34;101512.03;;;5.24;76.08
25232;BME280;13176;51.140;6.290;2024-01-07T12:04:01;101296.63;;;4.01;76.20
25232;BME280;13176;51.140;6.290;2024-01-07T12:06:28;101507.84;;;5.30;75.71
25232;BME280;13176;51.140;6.290;2024-01-07T12:08:54;101326.75;;;4.00;75.08
25232;BME280;13176;51.140;6.290;2024-01-07T12:11:21;101538.03;;;5.30;75.93
25232;BME280;13176;51.140;6.290;2024-01-07T12:13:48;101476.88;;;4.93;75.42
25232;BME280;13176;51.140;6.290;2024-01-07T12:16:16;101439.34;;;4.69;75.65
25232;BME280;13176;51.140;6.290;2024-01-07T12:18:43;101345.56;;;3.96;75.56
25232;BME280;13176;51.140;6.290;2024-01-07T12:21:10;101499.78;;;4.40;76.67
25232;BME280;13176;51.140;6.290;2024-01-07T12:23:37;101522.50;;;4.53;76.74
25232;BME280;13176;51.140;6.290;2024-01-07T12:26:09;101381.56;;;3.56;76.55
25232;BME280;13176;51.140;6.290;2024-01-07T12:28:37;101489.22;;;4.66;75.77
25232;BME280;13176;51.140;6.290;2024-01-07T12:31:07;101386.28;;;4.08;77.53
25232;BME280;13176;51.140;6.290;2024-01-07T12:33:37;101363.28;;;3.83;77.40
25232;BME280;13176;51.140;6.290;2024-01-07T12:36:06;101415.22;;;4.30;75.24
25232;BME280;13176;51.140;6.290;2024-01-07T12:38:33;101462.03;;;4.83;73.69
25232;BME280;13176;51.140;6.290;2024-01-07T12:41:02;101592.72;;;5.08;77.25
25232;BME280;13176;51.140;6.290;2024-01-07T12:43:29;101406.41;;;4.22;76.52
25232;BME280;13176;51.140;6.290;2024-01-07T12:45:55;101420.97;;;4.57;75.22
25232;BME280;13176;51.140;6.290;2024-01-07T12:48:23;101534.78;;;5.00;74.01
25232;BME280;13176;51.140;6.290;2024-01-07T12:50:50;101408.97;;;4.22;73.12
25232;BME280;13176;51.140;6.290;2024-01-07T12:53:16;101496.19;;;4.69;72.99
25232;BME280;13176;51.140;6.290;2024-01-07T12:55:43;101478.03;;;4.66;73.85
25232;BME280;13176;51.140;6.290;2024-01-07T12:58:10;101465.66;;;4.53;73.01
25232;BME280;13176;51.140;6.290;2024-01-07T13:00:36;101548.09;;;5.18;72.09
25232;BME280;13176;51.140;6.290;2024-01-07T13:03:04;101585.06;;;5.12;71.90
25232;BME280;13176;51.140;6.290;2024-01-07T13:05:33;101397.53;;;4.11;72.15
25232;BME280;13176;51.140;6.290;2024-01-07T13:08:00;101570.41;;;5.13;72.25
25232;BME280;13176;51.140;6.290;2024-01-07T13:10:26;101491.41;;;4.50;71.67